Time;durP1;ratioP1;P1;durP2;ratioP2;P2;SDS_P1;SDS_P2;PMS_P1;PMS_P2;Temp;Humidity;BMP_temperature;BMP_pressure;BME280_temperature;BME280_humidity;BME280_pressure;Samples;Min_cycle;Max_cycle;Signal;HPM_P1;HPM_P2
2022/07/31 00:00:15;;;;;;;6.18;4.03;;;21.40;99.90;;;;;;5086602;28;20223;-86
2022/07/31 00:02:43;;;;;;;5.30;4.03;;;21.40;99.90;;;;;;5083147;28;20211;-84
2022/07/31 00:05:10;;;;;;;8.52;4.30;;;21.40;99.90;;;;;;5082948;28;20208;-85
2022/07/31 00:07:37;;;;;;;10.45;4.45;;;21.40;99.90;;;;;;5085615;28;20211;-84
2022/07/31 00:10:05;;;;;;;5.97;3.78;;;21.50;99.90;;;;;;5084099;28;20676;-84
2022/07/31 00:12:35;;;;;;;12.32;4.07;;;21.40;99.90;;;;;;5084175;28;20219;-85
2022/07/31 00:15:08;;;;;;;7.80;4.00;;;21.40;99.90;;;;;;5081877;28;20206;-84
2022/07/31 00:17:40;;;;;;;5.15;3.90;;;21.30;99.90;;;;;;5083280;28;20229;-86
2022/07/31 00:20:09;;;;;;;5.50;3.80;;;21.30;99.90;;;;;;5079418;28;20208;-84
2022/07/31 00:22:36;;;;;;;6.20;4.28;;;21.30;99.90;;;;;;5082218;28;20672;-84
2022/07/31 00:25:03;;;;;;;5.50;4.32;;;21.30;99.90;;;;;;5086953;28;20211;-83
2022/07/31 00:27:36;;;;;;;6.35;4.40;;;21.30;99.90;;;;;;5084550;28;20281;-84
2022/07/31 00:30:06;;;;;;;6.75;4.47;;;21.20;99.90;;;;;;5087920;28;20211;-85
2022/07/31 00:32:33;;;;;;;6.88;4.47;;;21.20;99.90;;;;;;5077044;28;20584;-83
2022/07/31 00:35:00;;;;;;;5.85;4.13;;;21.20;99.90;;;;;;5081020;28;20199;-83
2022/07/31 00:37:27;;;;;;;8.23;4.57;;;21.20;99.90;;;;;;5084875;28;20219;-84
2022/07/31 00:39:54;;;;;;;15.70;4.80;;;21.20;99.90;;;;;;5086352;28;20207;-83
2022/07/31 00:42:25;;;;;;;6.78;4.45;;;21.20;99.90;;;;;;5086873;28;20249;-86
2022/07/31 00:44:52;;;;;;;7.70;4.90;;;21.20;99.90;;;;;;5086860;28;20204;-85
2022/07/31 00:47:19;;;;;;;6.88;4.60;;;21.20;99.90;;;;;;5080578;28;20227;-84
2022/07/31 00:49:49;;;;;;;6.45;4.70;;;21.20;99.90;;;;;;5077553;28;20242;-84
2022/07/31 00:52:16;;;;;;;5.22;4.72;;;21.10;99.90;;;;;;5081487;28;20295;-84
2022/07/31 00:54:43;;;;;;;5.15;4.65;;;21.10;99.90;;;;;;5075482;28;20381;-86
2022/07/31 00:57:14;;;;;;;5.78;4.82;;;21.10;99.90;;;;;;5081553;28;20212;-83
2022/07/31 00:59:43;;;;;;;5.35;4.85;;;21.10;99.90;;;;;;5083196;28;20391;-84
2022/07/31 01:02:10;;;;;;;6.13;4.80;;;21.00;99.90;;;;;;5076077;28;20216;-84
2022/07/31 01:04:37;;;;;;;5.68;4.43;;;21.00;99.90;;;;;;5082105;28;20250;-84
2022/07/31 01:07:08;;;;;;;7.72;4.75;;;20.90;99.90;;;;;;5081245;28;20712;-84
2022/07/31 01:09:38;;;;;;;6.28;5.10;;;20.90;99.90;;;;;;5088508;28;20550;-83
2022/07/31 01:12:05;;;;;;;6.07;5.45;;;20.80;99.90;;;;;;5082477;28;20233;-85
2022/07/31 01:14:35;;;;;;;7.28;4.68;;;20.80;99.90;;;;;;5083099;28;20214;-83
2022/07/31 01:17:04;;;;;;;6.20;5.00;;;20.70;99.90;;;;;;5078578;28;20219;-84
2022/07/31 01:19:43;;;;;;;7.07;5.60;;;20.70;99.90;;;;;;5082085;28;20734;-82
2022/07/31 01:22:44;;;;;;;9.07;5.53;;;20.60;99.90;;;;;;5086274;28;20826;-85
2022/07/31 01:25:27;;;;;;;10.52;5.30;;;20.60;99.90;;;;;;5081263;28;20212;-83
2022/07/31 01:28:09;;;;;;;8.05;5.35;;;20.50;99.90;;;;;;5082483;28;20569;-85
2022/07/31 01:31:06;;;;;;;5.75;5.13;;;20.50;99.90;;;;;;5078324;28;20204;-83
2022/07/31 01:34:07;;;;;;;9.73;6.88;;;20.40;99.90;;;;;;5048914;28;20216;-85
2022/07/31 01:36:37;;;;;;;7.82;5.63;;;20.40;99.90;;;;;;5081550;28;20212;-84
2022/07/31 01:39:04;;;;;;;6.93;5.88;;;20.30;99.90;;;;;;5082377;28;20319;-83
2022/07/31 01:41:39;;;;;;;7.47;5.30;;;20.30;99.90;;;;;;5079463;28;20211;-83
2022/07/31 01:44:11;;;;;;;7.63;6.22;;;20.30;99.90;;;;;;5081849;28;20204;-84
2022/07/31 01:46:43;;;;;;;7.93;5.43;;;20.30;99.90;;;;;;5079994;28;20242;-83
2022/07/31 01:49:11;;;;;;;8.07;6.10;;;20.30;99.90;;;;;;5077910;28;20228;-82
2022/07/31 01:51:42;;;;;;;16.25;6.50;;;20.20;99.90;;;;;;5081372;28;20208;-83
2022/07/31 01:54:11;;;;;;;9.57;5.78;;;20.20;99.90;;;;;;5085588;28;20203;-83
2022/07/31 01:56:39;;;;;;;7.97;5.95;;;20.30;99.90;;;;;;5083491;28;20204;-83
2022/07/31 01:59:09;;;;;;;7.95;5.68;;;20.30;99.90;;;;;;5088339;28;20253;-84
2022/07/31 02:01:47;;;;;;;8.70;5.63;;;20.20;99.90;;;;;;5086662;28;20245;-83
2022/07/31 02:04:18;;;;;;;8.65;5.30;;;20.20;99.90;;;;;;5080892;28;20203;-82
2022/07/31 02:06:48;;;;;;;5.93;5.30;;;20.30;99.90;;;;;;5083501;28;20281;-84
2022/07/31 02:09:18;;;;;;;7.07;5.28;;;20.30;99.90;;;;;;5082944;28;20215;-83
2022/07/31 02:11:46;;;;;;;8.73;5.50;;;20.40;99.90;;;;;;5081306;28;20202;-83
2022/07/31 02:14:21;;;;;;;7.10;4.50;;;20.40;99.90;;;;;;5084269;28;20207;-83
2022/07/31 02:16:52;;;;;;;5.97;4.78;;;20.40;99.90;;;;;;5083557;28;20299;-82
2022/07/31 02:19:21;;;;;;;8.35;4.72;;;20.40;99.90;;;;;;5073304;28;20259;-83
2022/07/31 02:21:49;;;;;;;4.75;4.20;;;20.40;99.90;;;;;;5083657;28;20212;-84
2022/07/31 02:24:16;;;;;;;6.97;4.50;;;20.40;99.90;;;;;;5084634;28;20208;-84
2022/07/31 02:26:51;;;;;;;8.57;4.53;;;20.50;99.90;;;;;;5087646;28;20207;-83
2022/07/31 02:29:19;;;;;;;7.15;4.50;;;20.50;99.90;;;;;;5079985;28;20214;-83
2022/07/31 02:31:49;;;;;;;4.53;3.80;;;20.50;99.90;;;;;;5079702;28;20205;-84
2022/07/31 02:34:36;;;;;;;6.13;4.35;;;20.50;99.90;;;;;;5077210;28;20204;-82
2022/07/31 02:37:04;;;;;;;5.25;4.22;;;20.50;99.90;;;;;;5086253;28;20215;-83
2022/07/31 02:39:34;;;;;;;6.35;4.20;;;20.60;99.90;;;;;;5088057;28;20326;-83
2022/07/31 02:42:02;;;;;;;5.40;3.90;;;20.60;99.90;;;;;;5087299;28;20219;-83
2022/07/31 02:44:33;;;;;;;4.70;4.30;;;20.60;99.90;;;;;;5088631;28;20203;-85
2022/07/31 02:47:01;;;;;;;5.93;3.97;;;20.60;99.90;;;;;;5076350;28;20246;-84
2022/07/31 02:49:29;;;;;;;6.82;4.82;;;20.60;99.90;;;;;;5078462;28;20212;-82
2022/07/31 02:51:56;;;;;;;5.53;4.00;;;20.60;99.90;;;;;;5090209;28;20195;-84
2022/07/31 02:54:24;;;;;;;5.75;4.50;;;20.60;99.90;;;;;;5090330;28;20203;-83
2022/07/31 02:56:52;;;;;;;6.28;5.45;;;20.70;99.90;;;;;;5085237;28;20235;-83
2022/07/31 02:59:21;;;;;;;6.47;5.40;;;20.60;99.90;;;;;;5097547;28;20262;-83
2022/07/31 03:01:48;;;;;;;7.63;4.65;;;20.60;99.90;;;;;;5087012;28;20215;-84
2022/07/31 03:04:16;;;;;;;5.80;5.20;;;20.60;99.90;;;;;;5090224;28;20199;-84
2022/07/31 03:06:47;;;;;;;7.85;4.75;;;20.60;99.90;;;;;;5092960;28;20248;-84
2022/07/31 03:09:14;;;;;;;5.93;4.10;;;20.60;99.90;;;;;;5118021;28;20256;-85
2022/07/31 03:11:41;;;;;;;6.70;4.35;;;20.60;99.90;;;;;;5109226;28;20191;-87
2022/07/31 03:14:11;;;;;;;5.78;4.47;;;20.60;99.90;;;;;;5110947;28;20240;-85
2022/07/31 03:16:40;;;;;;;5.75;4.97;;;20.60;99.90;;;;;;5117462;28;20191;-84
2022/07/31 03:19:08;;;;;;;5.55;4.65;;;20.50;99.90;;;;;;5110794;28;20583;-81
2022/07/31 03:21:37;;;;;;;6.85;5.05;;;20.50;99.90;;;;;;5115335;28;20188;-84
2022/07/31 03:24:23;;;;;;;6.13;4.65;;;20.50;99.90;;;;;;5119291;28;20236;-85
2022/07/31 03:27:01;;;;;;;5.15;4.65;;;20.50;99.90;;;;;;5109358;28;20191;-84
2022/07/31 03:29:39;;;;;;;6.13;4.82;;;20.50;99.90;;;;;;5097496;28;20248;-83
2022/07/31 03:32:09;;;;;;;5.97;4.82;;;20.40;99.90;;;;;;5094290;28;20855;-83
2022/07/31 03:34:36;;;;;;;8.40;4.55;;;20.40;99.90;;;;;;5092156;28;20316;-82
2022/07/31 03:37:02;;;;;;;5.95;5.10;;;20.30;99.90;;;;;;5094090;28;20202;-83
2022/07/31 03:39:33;;;;;;;8.68;4.70;;;20.30;99.90;;;;;;5091254;28;20235;-85
2022/07/31 03:42:02;;;;;;;6.22;5.13;;;20.30;99.90;;;;;;5083795;28;20232;-83
2022/07/31 03:44:31;;;;;;;8.00;5.90;;;20.30;99.90;;;;;;5083821;28;20959;-84
2022/07/31 03:46:58;;;;;;;7.72;5.68;;;20.30;99.90;;;;;;5089143;28;20196;-84
2022/07/31 03:49:28;;;;;;;9.02;5.10;;;20.40;99.90;;;;;;5082526;28;20776;-84
2022/07/31 03:51:56;;;;;;;5.50;5.00;;;20.20;99.90;;;;;;5093736;28;20208;-84
2022/07/31 03:54:23;;;;;;;7.35;5.90;;;20.30;99.90;;;;;;5095860;28;20186;-85
2022/07/31 03:56:55;;;;;;;7.28;5.60;;;20.20;99.90;;;;;;5112029;28;20196;-83
2022/07/31 03:59:22;;;;;;;7.63;5.63;;;20.10;99.90;;;;;;5106005;28;20234;-84
2022/07/31 04:01:49;;;;;;;9.30;5.68;;;20.20;99.90;;;;;;5092456;28;20577;-82
2022/07/31 04:04:24;;;;;;;6.47;5.78;;;20.10;99.90;;;;;;5089352;28;20570;-82
2022/07/31 04:06:51;;;;;;;6.30;5.63;;;20.10;99.90;;;;;;5090060;28;20235;-84
2022/07/31 04:09:19;;;;;;;8.05;5.25;;;20.10;99.90;;;;;;5097579;28;20211;-84
2022/07/31 04:11:46;;;;;;;9.48;5.53;;;20.10;99.90;;;;;;5087086;28;20215;-84
2022/07/31 04:14:13;;;;;;;7.13;5.68;;;20.10;99.90;;;;;;5087219;28;20203;-85
2022/07/31 04:16:40;;;;;;;5.95;5.35;;;20.10;99.90;;;;;;5084380;28;20940;-82
2022/07/31 04:19:07;;;;;;;8.40;5.63;;;20.20;99.90;;;;;;5110236;27;21037;-85
2022/07/31 04:21:34;;;;;;;6.55;5.50;;;20.10;99.90;;;;;;5089029;28;20196;-85
2022/07/31 04:24:01;;;;;;;10.93;5.30;;;20.20;99.90;;;;;;5084796;28;20207;-84
2022/07/31 04:26:28;;;;;;;6.25;5.65;;;20.20;99.90;;;;;;5085470;28;20271;-84
2022/07/31 04:28:55;;;;;;;8.95;5.80;;;20.20;99.90;;;;;;5088307;28;20759;-84
2022/07/31 04:31:26;;;;;;;6.45;5.78;;;20.20;99.90;;;;;;5082714;28;20261;-85
2022/07/31 04:33:53;;;;;;;7.88;5.75;;;20.20;99.90;;;;;;5088257;28;20219;-85
2022/07/31 04:36:25;;;;;;;6.25;5.65;;;20.20;99.90;;;;;;5091243;28;20201;-84
2022/07/31 04:38:55;;;;;;;6.60;5.93;;;20.10;99.90;;;;;;5080249;28;20904;-84
2022/07/31 04:41:23;;;;;;;7.57;6.30;;;20.10;99.90;;;;;;5086546;28;20215;-85
2022/07/31 04:43:51;;;;;;;7.75;5.90;;;20.10;99.90;;;;;;5082393;28;20208;-85
2022/07/31 04:46:18;;;;;;;7.00;6.18;;;20.00;99.90;;;;;;5078244;28;20924;-83
2022/07/31 04:48:45;;;;;;;7.95;5.57;;;20.00;99.90;;;;;;5081532;28;20216;-84
2022/07/31 04:51:21;;;;;;;6.80;5.88;;;20.00;99.90;;;;;;5085162;28;20755;-84
2022/07/31 04:53:49;;;;;;;9.93;5.95;;;20.10;99.90;;;;;;5089868;28;20744;-84
2022/07/31 04:56:36;;;;;;;7.18;5.57;;;20.10;99.90;;;;;;5087103;28;20227;-86
2022/07/31 04:59:06;;;;;;;7.68;5.00;;;20.10;99.90;;;;;;5081917;28;20231;-87
2022/07/31 05:01:33;;;;;;;8.27;5.38;;;20.10;99.90;;;;;;5088590;28;20217;-87
2022/07/31 05:04:01;;;;;;;7.43;5.15;;;20.10;99.90;;;;;;5091044;28;20593;-86
2022/07/31 05:06:48;;;;;;;5.68;5.05;;;20.10;99.90;;;;;;5082441;28;20231;-87
2022/07/31 05:09:21;;;;;;;5.95;5.35;;;20.20;99.90;;;;;;5086768;28;20256;-86
2022/07/31 05:11:51;;;;;;;8.75;6.07;;;20.20;99.90;;;;;;5089259;28;20226;-88
2022/07/31 05:14:28;;;;;;;9.32;6.80;;;20.20;99.90;;;;;;5092225;28;20214;-88
2022/07/31 05:16:55;;;;;;;9.57;6.70;;;20.20;99.90;;;;;;5088378;28;20315;-87
2022/07/31 05:19:28;;;;;;;9.75;6.72;;;20.30;99.90;;;;;;5071960;28;20337;-87
2022/07/31 05:21:58;;;;;;;7.80;7.10;;;20.30;99.90;;;;;;5086798;28;20574;-86
2022/07/31 05:24:30;;;;;;;8.77;7.88;;;20.30;99.90;;;;;;5090355;28;20210;-88
2022/07/31 05:27:06;;;;;;;13.35;7.57;;;20.40;99.90;;;;;;5080825;28;20289;-86
2022/07/31 05:29:33;;;;;;;11.50;7.90;;;20.40;99.90;;;;;;5088508;28;20204;-86
2022/07/31 05:32:00;;;;;;;9.95;7.65;;;20.50;99.90;;;;;;5079524;28;20861;-87
2022/07/31 05:34:28;;;;;;;11.68;7.80;;;20.50;99.90;;;;;;5088387;28;20187;-86
2022/07/31 05:37:01;;;;;;;10.25;8.30;;;20.70;99.90;;;;;;5085536;28;20211;-87
2022/07/31 05:39:30;;;;;;;9.88;7.72;;;20.70;99.90;;;;;;5077486;28;20306;-89
2022/07/31 05:42:00;;;;;;;9.00;7.97;;;20.80;99.90;;;;;;5081919;28;20231;-88
2022/07/31 05:44:27;;;;;;;10.73;8.48;;;20.80;99.90;;;;;;5084950;28;20223;-86
2022/07/31 05:46:58;;;;;;;10.55;7.78;;;20.80;99.90;;;;;;5085656;28;20346;-86
2022/07/31 05:49:28;;;;;;;11.65;8.05;;;20.80;99.90;;;;;;5083120;28;20696;-88
2022/07/31 05:51:58;;;;;;;9.95;8.02;;;20.90;99.90;;;;;;5088922;28;20304;-89
2022/07/31 05:54:31;;;;;;;9.88;7.70;;;20.90;99.90;;;;;;5082056;28;20204;-88
2022/07/31 05:56:58;;;;;;;8.88;7.47;;;21.00;99.90;;;;;;5078808;28;20201;-88
2022/07/31 05:59:25;;;;;;;9.07;8.15;;;20.90;99.90;;;;;;5088186;28;20274;-87
2022/07/31 06:01:53;;;;;;;15.98;7.70;;;21.10;99.90;;;;;;5089305;28;20200;-86
2022/07/31 06:04:21;;;;;;;9.70;7.65;;;21.00;99.90;;;;;;5091406;28;20250;-87
2022/07/31 06:06:49;;;;;;;13.57;7.53;;;21.20;99.90;;;;;;5088374;28;20619;-87
2022/07/31 06:09:26;;;;;;;11.93;7.72;;;21.10;99.90;;;;;;5084761;28;20244;-88
2022/07/31 06:11:55;;;;;;;10.60;7.28;;;21.10;99.90;;;;;;5085465;28;20203;-88
2022/07/31 06:14:26;;;;;;;9.50;8.38;;;21.10;99.90;;;;;;5089118;28;20299;-85
2022/07/31 06:16:53;;;;;;;9.45;7.95;;;21.00;99.90;;;;;;5086745;28;20212;-86
2022/07/31 06:19:28;;;;;;;13.00;8.25;;;21.00;99.90;;;;;;5092183;28;20231;-89
2022/07/31 06:21:55;;;;;;;10.38;7.75;;;21.10;99.90;;;;;;5089495;28;20373;-88
2022/07/31 06:24:22;;;;;;;11.73;8.73;;;21.20;99.90;;;;;;5090218;28;20206;-89
2022/07/31 06:27:00;;;;;;;11.05;8.85;;;21.20;99.90;;;;;;5088411;28;20695;-89
2022/07/31 06:29:39;;;;;;;11.38;8.18;;;21.20;99.90;;;;;;5085927;28;20206;-89
2022/07/31 06:32:08;;;;;;;10.18;7.50;;;21.20;99.90;;;;;;5087914;28;20220;-88
2022/07/31 06:34:35;;;;;;;13.02;8.02;;;21.20;99.90;;;;;;5084358;28;20287;-87
2022/07/31 06:37:07;;;;;;;11.15;7.68;;;21.10;99.90;;;;;;5084267;28;20203;-86
2022/07/31 06:39:41;;;;;;;12.70;7.55;;;21.20;99.90;;;;;;5093499;28;20314;-87
2022/07/31 06:42:23;;;;;;;8.88;7.00;;;21.30;99.90;;;;;;5102793;28;20267;-88
2022/07/31 06:44:55;;;;;;;8.60;6.97;;;21.20;99.90;;;;;;5089861;28;20680;-88
2022/07/31 06:48:02;;;;;;;10.18;7.40;;;21.40;99.90;;;;;;5094383;28;20211;-89
2022/07/31 06:50:33;;;;;;;9.38;7.38;;;21.40;99.90;;;;;;5104919;28;20206;-93
2022/07/31 06:53:00;;;;;;;12.75;7.30;;;21.50;99.90;;;;;;5106436;28;20200;-89
2022/07/31 06:55:38;;;;;;;9.15;7.40;;;21.60;99.90;;;;;;5102072;28;20245;-90
2022/07/31 06:58:17;;;;;;;9.75;6.80;;;21.70;99.90;;;;;;5082882;28;20208;-88
2022/07/31 07:00:47;;;;;;;8.95;7.53;;;21.80;99.90;;;;;;5093345;28;20281;-91
2022/07/31 07:03:27;;;;;;;10.82;7.10;;;21.80;99.90;;;;;;5093915;28;20244;-87
2022/07/31 07:05:55;;;;;;;8.90;7.38;;;21.80;99.90;;;;;;5092607;28;20366;-90
2022/07/31 07:08:25;;;;;;;9.23;6.93;;;21.70;99.90;;;;;;5101675;28;20286;-92
2022/07/31 07:10:58;;;;;;;8.10;7.03;;;21.70;99.90;;;;;;5103411;28;20207;-90
2022/07/31 07:13:29;;;;;;;9.00;7.25;;;21.80;99.90;;;;;;5084328;28;20208;-91
2022/07/31 07:16:15;;;;;;;9.75;7.70;;;22.00;99.90;;;;;;5095004;28;20196;-91
2022/07/31 07:18:45;;;;;;;10.25;8.15;;;22.10;99.90;;;;;;5089102;28;20308;-90
2022/07/31 07:21:28;;;;;;;10.15;7.40;;;22.10;99.90;;;;;;5091382;28;20234;-92
2022/07/31 07:24:05;;;;;;;11.82;7.00;;;22.20;99.90;;;;;;5097460;28;20291;-89
2022/07/31 07:26:43;;;;;;;11.70;7.18;;;22.10;99.90;;;;;;5088735;28;20191;-91
2022/07/31 07:29:10;;;;;;;11.43;6.72;;;22.10;99.90;;;;;;5083868;28;20239;-89
2022/07/31 07:31:43;;;;;;;7.95;6.05;;;22.30;99.90;;;;;;5093614;28;20204;-91
2022/07/31 07:34:27;;;;;;;7.25;6.05;;;22.30;99.90;;;;;;5095575;28;20295;-94
2022/07/31 07:37:01;;;;;;;11.52;5.95;;;22.50;99.90;;;;;;5094224;28;20199;-93
2022/07/31 07:39:57;;;;;;;6.07;5.32;;;22.50;99.90;;;;;;5096634;28;20195;-89
2022/07/31 07:42:46;;;;;;;7.20;5.93;;;22.50;99.90;;;;;;5089640;28;20203;-92
2022/07/31 07:45:34;;;;;;;9.00;5.97;;;22.40;99.90;;;;;;5097620;28;20210;-91
2022/07/31 07:48:01;;;;;;;8.05;5.03;;;22.50;99.90;;;;;;5082445;28;20223;-89
2022/07/31 07:50:33;;;;;;;7.43;5.50;;;22.50;99.90;;;;;;5088789;28;20204;-89
2022/07/31 07:53:02;;;;;;;8.73;5.70;;;22.60;99.90;;;;;;5080044;28;20668;-88
2022/07/31 07:55:32;;;;;;;7.78;5.18;;;22.70;99.90;;;;;;5090449;28;20273;-92
2022/07/31 07:58:06;;;;;;;12.07;6.22;;;22.70;99.90;;;;;;5083895;28;20295;-89
2022/07/31 08:00:39;;;;;;;8.43;6.20;;;22.80;99.90;;;;;;5080353;28;20342;-87
2022/07/31 08:03:11;;;;;;;8.95;5.53;;;22.90;99.90;;;;;;5088482;28;20212;-88
2022/07/31 08:05:58;;;;;;;8.18;5.75;;;23.00;99.90;;;;;;5092450;28;20236;-88
2022/07/31 08:08:30;;;;;;;8.93;5.60;;;22.90;99.90;;;;;;5091511;28;20212;-89
2022/07/31 08:10:59;;;;;;;10.30;5.97;;;22.90;99.90;;;;;;5097764;28;20207;-90
2022/07/31 08:13:29;;;;;;;8.82;5.97;;;22.90;99.90;;;;;;5098942;28;20172;-91
2022/07/31 08:15:56;;;;;;;9.88;5.93;;;22.90;99.90;;;;;;5095075;28;20204;-89
2022/07/31 08:18:24;;;;;;;9.43;6.40;;;23.00;99.90;;;;;;5110754;28;20238;-85
2022/07/31 08:20:54;;;;;;;12.68;8.07;;;23.10;99.90;;;;;;5083422;28;20232;-90
2022/07/31 08:23:21;;;;;;;12.45;8.13;;;23.10;99.90;;;;;;5098248;28;20982;-88
2022/07/31 08:25:49;;;;;;;9.40;7.18;;;23.20;99.90;;;;;;5089699;28;20196;-86
2022/07/31 08:28:17;;;;;;;13.10;7.90;;;23.20;99.90;;;;;;5096792;28;20242;-88
2022/07/31 08:30:52;;;;;;;9.57;7.53;;;23.20;99.90;;;;;;5090406;28;20210;-88
2022/07/31 08:33:19;;;;;;;10.27;7.70;;;23.10;99.90;;;;;;5088609;28;20703;-88
2022/07/31 08:35:48;;;;;;;12.45;8.13;;;23.10;99.90;;;;;;5071987;28;20204;-88
2022/07/31 08:38:17;;;;;;;9.43;6.55;;;23.00;99.90;;;;;;5075752;28;20275;-88
2022/07/31 08:40:45;;;;;;;11.95;8.25;;;23.00;99.90;;;;;;5089690;28;20312;-92
2022/07/31 08:43:13;;;;;;;10.40;7.78;;;22.90;99.90;;;;;;5078739;28;20200;-89
2022/07/31 08:46:04;;;;;;;12.45;8.07;;;22.90;99.90;;;;;;5080934;28;20239;-88
2022/07/31 08:48:36;;;;;;;14.38;8.40;;;22.80;99.90;;;;;;5087051;28;20219;-84
2022/07/31 08:51:05;;;;;;;11.90;8.60;;;22.80;99.90;;;;;;5087258;28;20208;-84
2022/07/31 08:53:35;;;;;;;13.48;8.77;;;22.80;99.90;;;;;;5088477;28;20668;-84
2022/07/31 08:56:04;;;;;;;13.85;9.45;;;22.80;99.90;;;;;;5090349;28;20218;-84
2022/07/31 08:58:33;;;;;;;14.20;8.85;;;22.70;99.90;;;;;;5085971;28;20204;-84
2022/07/31 09:01:07;;;;;;;15.32;10.10;;;22.70;99.90;;;;;;5102648;28;20231;-86
2022/07/31 09:03:37;;;;;;;13.85;10.10;;;22.70;99.90;;;;;;5095279;28;20270;-90
2022/07/31 09:06:05;;;;;;;14.80;11.55;;;22.80;99.90;;;;;;5093260;28;20227;-88
2022/07/31 09:08:37;;;;;;;18.38;12.10;;;22.80;99.90;;;;;;5089232;28;20300;-90
2022/07/31 09:11:24;;;;;;;17.95;12.80;;;22.80;99.90;;;;;;5083799;28;20618;-91
2022/07/31 09:14:06;;;;;;;20.10;13.88;;;22.90;99.90;;;;;;5099446;28;20237;-91
2022/07/31 09:16:53;;;;;;;18.73;12.57;;;22.80;99.90;;;;;;5086644;28;20208;-93
2022/07/31 09:19:42;;;;;;;21.17;13.95;;;22.80;99.90;;;;;;5094296;28;20203;-87
2022/07/31 09:22:26;;;;;;;19.92;14.00;;;22.80;99.90;;;;;;5090236;28;20257;-86
2022/07/31 09:25:04;;;;;;;22.60;15.15;;;22.80;99.90;;;;;;5097433;28;20209;-90
2022/07/31 09:27:33;;;;;;;17.90;13.40;;;22.80;99.90;;;;;;5091959;28;20204;-90
2022/07/31 09:30:03;;;;;;;18.35;13.80;;;22.90;99.90;;;;;;5080995;28;20200;-86
2022/07/31 09:32:30;;;;;;;20.35;13.60;;;22.90;99.90;;;;;;5095716;28;20215;-86
2022/07/31 09:35:11;;;;;;;17.77;12.63;;;23.00;99.90;;;;;;5088290;28;20871;-90
2022/07/31 09:37:39;;;;;;;15.55;11.98;;;23.20;99.90;;;;;;5086175;28;20208;-89
2022/07/31 09:40:08;;;;;;;19.70;14.18;;;23.30;99.90;;;;;;5096399;28;20694;-88
2022/07/31 09:42:41;;;;;;;19.92;14.65;;;23.50;99.90;;;;;;5091843;28;20280;-87
2022/07/31 09:45:26;;;;;;;16.98;13.23;;;23.50;99.90;;;;;;5087334;28;20208;-86
2022/07/31 09:48:07;;;;;;;16.27;13.75;;;23.60;99.90;;;;;;5087980;28;20323;-86
2022/07/31 09:51:09;;;;;;;21.15;14.40;;;23.70;99.90;;;;;;5084517;28;20202;-87
2022/07/31 09:53:45;;;;;;;18.60;14.25;;;23.70;99.90;;;;;;5086311;28;20296;-85
2022/07/31 09:56:14;;;;;;;17.92;13.48;;;23.80;99.90;;;;;;5084869;28;20196;-87
2022/07/31 09:58:44;;;;;;;22.40;14.43;;;23.80;99.90;;;;;;5083146;28;20196;-88
2022/07/31 10:01:18;;;;;;;18.52;13.38;;;23.80;99.90;;;;;;5093509;28;20227;-87
2022/07/31 10:03:54;;;;;;;18.13;12.90;;;23.70;99.90;;;;;;5087041;28;20208;-88
2022/07/31 10:06:26;;;;;;;18.30;14.25;;;23.70;99.90;;;;;;5098608;28;20232;-90
2022/07/31 10:09:05;;;;;;;20.10;14.38;;;23.80;99.90;;;;;;5101814;28;20200;-90
2022/07/31 10:11:33;;;;;;;17.25;13.95;;;23.80;99.90;;;;;;5094461;28;20234;-88
2022/07/31 10:14:09;;;;;;;18.48;14.32;;;23.80;99.90;;;;;;5099275;28;20199;-86
2022/07/31 10:16:49;;;;;;;22.65;16.17;;;23.70;99.90;;;;;;5101120;28;20228;-91
2022/07/31 10:19:18;;;;;;;20.35;15.13;;;23.60;99.90;;;;;;5104388;28;20199;-86
2022/07/31 10:21:53;;;;;;;20.50;15.32;;;23.40;99.90;;;;;;5094089;28;20231;-81
2022/07/31 10:24:22;;;;;;;19.85;16.25;;;23.40;99.90;;;;;;5092021;28;20284;-83
2022/07/31 10:26:59;;;;;;;22.98;18.90;;;23.20;99.90;;;;;;5094220;28;20206;-86
2022/07/31 10:29:38;;;;;;;25.58;19.30;;;23.20;99.90;;;;;;5099524;28;20204;-85
2022/07/31 10:32:07;;;;;;;26.55;20.30;;;22.90;99.90;;;;;;5090289;28;20247;-84
2022/07/31 10:34:35;;;;;;;27.08;21.65;;;22.90;99.90;;;;;;5093716;28;20695;-84
2022/07/31 10:37:17;;;;;;;28.65;21.42;;;22.80;99.90;;;;;;5091443;28;20196;-83
2022/07/31 10:40:02;;;;;;;29.27;21.45;;;22.90;99.90;;;;;;5094315;28;20207;-82
2022/07/31 10:42:43;;;;;;;24.23;20.33;;;23.00;99.90;;;;;;5097970;28;20206;-83
2022/07/31 10:45:12;;;;;;;26.83;20.60;;;23.10;99.90;;;;;;5082138;28;20201;-83
2022/07/31 10:47:40;;;;;;;28.02;20.17;;;23.10;99.90;;;;;;5090821;28;20753;-83
2022/07/31 10:50:25;;;;;;;25.05;19.63;;;23.10;99.90;;;;;;5090134;28;20355;-82
2022/07/31 10:52:53;;;;;;;24.23;18.75;;;23.20;99.90;;;;;;5091132;28;20203;-83
2022/07/31 10:55:28;;;;;;;24.30;18.58;;;23.10;99.90;;;;;;5104155;28;20208;-85
2022/07/31 10:58:09;;;;;;;26.08;18.85;;;23.10;99.90;;;;;;5082213;28;20204;-82
2022/07/31 11:00:37;;;;;;;26.10;20.15;;;23.30;99.90;;;;;;5095330;28;20664;-85
2022/07/31 11:03:14;;;;;;;27.33;18.70;;;23.20;99.90;;;;;;5094962;28;20302;-85
2022/07/31 11:06:00;;;;;;;25.30;19.77;;;23.30;99.90;;;;;;5093839;28;20262;-84
2022/07/31 11:08:46;;;;;;;23.63;18.10;;;23.40;99.90;;;;;;5092389;28;20208;-84
2022/07/31 11:11:14;;;;;;;23.73;17.63;;;23.40;99.90;;;;;;5092319;28;20208;-84
2022/07/31 11:13:50;;;;;;;26.60;18.67;;;23.60;99.90;;;;;;5091613;28;20202;-84
2022/07/31 11:16:19;;;;;;;23.48;18.17;;;23.70;99.90;;;;;;5094060;28;20253;-84
2022/07/31 11:19:00;;;;;;;24.83;18.90;;;23.70;99.90;;;;;;5084951;28;20285;-83
2022/07/31 11:21:39;;;;;;;22.73;17.58;;;23.90;99.90;;;;;;5090191;28;20224;-85
2022/07/31 11:24:19;;;;;;;22.00;17.40;;;23.90;99.90;;;;;;5083335;28;20210;-86
2022/07/31 11:26:52;;;;;;;26.10;19.05;;;23.90;99.90;;;;;;5095118;28;20196;-86
2022/07/31 11:29:48;;;;;;;21.88;17.67;;;24.00;99.90;;;;;;5096124;28;20273;-86
2022/07/31 11:32:29;;;;;;;26.77;18.63;;;23.80;99.90;;;;;;5095185;28;20219;-83
2022/07/31 11:34:59;;;;;;;23.27;17.52;;;23.50;99.90;;;;;;5091228;28;20902;-83
2022/07/31 11:37:30;;;;;;;25.45;18.73;;;23.60;99.90;;;;;;5093845;28;20397;-87
2022/07/31 11:40:24;;;;;;;25.42;20.02;;;23.60;99.90;;;;;;5093847;28;20288;-86
2022/07/31 11:42:54;;;;;;;25.13;19.75;;;23.50;99.90;;;;;;5091965;28;21247;-85
2022/07/31 11:45:50;;;;;;;25.40;20.60;;;23.50;99.90;;;;;;5089776;28;20212;-85
2022/07/31 11:48:18;;;;;;;27.10;20.75;;;23.50;99.90;;;;;;5098387;28;20950;-86
2022/07/31 11:50:47;;;;;;;31.20;23.15;;;23.40;99.90;;;;;;5098456;28;20247;-84
2022/07/31 11:53:14;;;;;;;27.63;21.60;;;23.20;99.90;;;;;;5091543;28;20218;-88
2022/07/31 11:55:44;;;;;;;32.03;20.98;;;23.10;99.90;;;;;;5086360;28;20200;-85
2022/07/31 11:58:11;;;;;;;33.58;23.17;;;23.10;99.90;;;;;;5095762;28;20482;-85
2022/07/31 12:00:38;;;;;;;33.22;23.23;;;23.00;99.90;;;;;;5096871;28;20225;-84
2022/07/31 12:03:07;;;;;;;30.50;21.77;;;22.80;99.90;;;;;;5092718;28;20224;-85
2022/07/31 12:05:44;;;;;;;32.38;23.88;;;22.90;99.90;;;;;;5086547;28;20219;-85
2022/07/31 12:08:14;;;;;;;31.38;20.95;;;22.90;99.90;;;;;;5092871;28;20231;-83
2022/07/31 12:10:42;;;;;;;29.85;22.73;;;22.90;99.90;;;;;;5095234;28;20589;-84
2022/07/31 12:13:17;;;;;;;29.95;22.80;;;22.90;99.90;;;;;;5092259;28;20708;-85
2022/07/31 12:16:00;;;;;;;32.92;24.02;;;22.90;99.90;;;;;;5094372;28;20215;-84
2022/07/31 12:18:28;;;;;;;33.55;25.05;;;22.90;99.90;;;;;;5117768;27;20218;-84
2022/07/31 12:21:02;;;;;;;33.35;24.75;;;22.90;99.90;;;;;;5095835;28;20291;-85
2022/07/31 12:23:45;;;;;;;29.27;22.85;;;23.10;99.90;;;;;;5093541;28;20208;-85
2022/07/31 12:26:24;;;;;;;33.42;25.50;;;23.10;99.90;;;;;;5089964;28;20215;-86
2022/07/31 12:29:02;;;;;;;32.05;25.35;;;23.20;99.90;;;;;;5086250;28;20210;-86
2022/07/31 12:31:31;;;;;;;26.20;22.38;;;23.30;99.90;;;;;;5086065;28;20207;-86
2022/07/31 12:33:58;;;;;;;31.45;24.58;;;23.30;99.90;;;;;;5082689;28;20393;-89
2022/07/31 12:36:26;;;;;;;31.75;24.92;;;23.40;99.90;;;;;;5084254;28;20219;-87
2022/07/31 12:39:04;;;;;;;32.58;26.10;;;23.50;99.90;;;;;;5093317;28;20269;-82
2022/07/31 12:41:41;;;;;;;32.45;25.00;;;23.50;99.90;;;;;;5087211;28;20234;-85
2022/07/31 12:44:12;;;;;;;38.03;26.60;;;23.40;99.90;;;;;;5097214;28;20204;-88
2022/07/31 12:46:47;;;;;;;32.17;25.02;;;23.40;99.90;;;;;;5095233;28;20208;-86
2022/07/31 12:49:15;;;;;;;31.60;24.50;;;23.20;99.90;;;;;;5096689;28;20284;-88
2022/07/31 12:51:45;;;;;;;29.77;23.20;;;23.30;99.90;;;;;;5094982;28;20267;-91
2022/07/31 12:54:16;;;;;;;32.30;23.83;;;23.30;99.90;;;;;;5108549;28;20682;-95
2022/07/31 12:56:45;;;;;;;31.63;25.08;;;23.30;99.90;;;;;;5087695;28;20199;-90
2022/07/31 12:59:15;;;;;;;31.15;23.58;;;23.30;99.90;;;;;;5092241;28;20276;-90
2022/07/31 13:01:43;;;;;;;29.63;23.90;;;23.40;99.90;;;;;;5087993;28;20228;-89
2022/07/31 13:04:15;;;;;;;28.48;22.70;;;23.50;99.90;;;;;;5093071;28;20271;-88